Terminal Aerodrome Forecast
Issued by NWS Binghamton, NY

Home | Current Version | Previous Version | Text Only | Print | Product List | Glossary On
Versions: 1 2 3 4 5 6 7 8 9 10 11 12 13 14 15 16 17 18 19 20 21
000
FTUS41 KBGM 261300 AAA
TAFBGM
TAF AMD
KBGM 261356Z 2614/2712 06005KT P6SM BKN025 OVC050
      TEMPO 2615/2616 3SM -SN OVC020
     FM261600 02006KT 1/2SM SN OVC009
     FM270100 34009KT 2SM -SN OVC018
     FM270700 33007KT 5SM -SHSN OVC022=

USA.gov is the U.S. government's official web portal to all federal, state and local government web resources and services.